sensor_id;sensor_type;location;lat;lon;timestamp;temperature;humidity
10354;DHT22;5223;50.924;13.338;2022-07-22T00:00:13;18.60;99.90
10354;DHT22;5223;50.924;13.338;2022-07-22T00:02:40;18.50;99.90
10354;DHT22;5223;50.924;13.338;2022-07-22T00:05:08;18.50;99.90
10354;DHT22;5223;50.924;13.338;2022-07-22T00:07:36;18.40;99.90
10354;DHT22;5223;50.924;13.338;2022-07-22T00:10:04;18.30;99.90
10354;DHT22;5223;50.924;13.338;2022-07-22T00:12:31;18.20;99.90
10354;DHT22;5223;50.924;13.338;2022-07-22T00:14:59;18.10;99.90
10354;DHT22;5223;50.924;13.338;2022-07-22T00:17:26;18.00;99.90
10354;DHT22;5223;50.924;13.338;2022-07-22T00:19:53;17.90;99.90
10354;DHT22;5223;50.924;13.338;2022-07-22T00:22:21;17.90;99.90
10354;DHT22;5223;50.924;13.338;2022-07-22T00:24:47;17.90;99.90
10354;DHT22;5223;50.924;13.338;2022-07-22T00:27:14;18.00;99.90
10354;DHT22;5223;50.924;13.338;2022-07-22T00:29:41;18.20;99.90
10354;DHT22;5223;50.924;13.338;2022-07-22T00:32:09;18.10;99.90
10354;DHT22;5223;50.924;13.338;2022-07-22T00:34:36;18.20;99.90
10354;DHT22;5223;50.924;13.338;2022-07-22T00:37:03;18.20;99.90
10354;DHT22;5223;50.924;13.338;2022-07-22T00:39:30;18.30;99.90
10354;DHT22;5223;50.924;13.338;2022-07-22T00:41:57;18.30;99.90
10354;DHT22;5223;50.924;13.338;2022-07-22T00:44:25;18.40;99.90
10354;DHT22;5223;50.924;13.338;2022-07-22T00:46:52;18.30;99.90
10354;DHT22;5223;50.924;13.338;2022-07-22T00:49:20;18.30;99.90
10354;DHT22;5223;50.924;13.338;2022-07-22T00:51:53;18.30;99.90
10354;DHT22;5223;50.924;13.338;2022-07-22T00:54:22;18.30;99.90
10354;DHT22;5223;50.924;13.338;2022-07-22T00:56:50;18.40;99.90
10354;DHT22;5223;50.924;13.338;2022-07-22T00:59:17;18.30;99.90
10354;DHT22;5223;50.924;13.338;2022-07-22T01:01:44;18.30;99.90
10354;DHT22;5223;50.924;13.338;2022-07-22T01:04:10;18.10;99.90
10354;DHT22;5223;50.924;13.338;2022-07-22T01:06:39;18.00;99.90
10354;DHT22;5223;50.924;13.338;2022-07-22T01:09:10;18.00;99.90
10354;DHT22;5223;50.924;13.338;2022-07-22T01:11:39;18.10;99.90
10354;DHT22;5223;50.924;13.338;2022-07-22T01:14:06;18.10;99.90
10354;DHT22;5223;50.924;13.338;2022-07-22T01:16:32;18.20;99.90
10354;DHT22;5223;50.924;13.338;2022-07-22T01:18:59;18.10;99.90
10354;DHT22;5223;50.924;13.338;2022-07-22T01:21:28;18.10;99.90
10354;DHT22;5223;50.924;13.338;2022-07-22T01:23:56;18.10;99.90
10354;DHT22;5223;50.924;13.338;2022-07-22T01:26:23;18.10;99.90
10354;DHT22;5223;50.924;13.338;2022-07-22T01:28:50;18.00;99.90
10354;DHT22;5223;50.924;13.338;2022-07-22T01:31:17;17.90;99.90
10354;DHT22;5223;50.924;13.338;2022-07-22T01:33:44;17.70;99.90
10354;DHT22;5223;50.924;13.338;2022-07-22T01:36:11;17.60;99.90
10354;DHT22;5223;50.924;13.338;2022-07-22T01:38:39;17.50;99.90
10354;DHT22;5223;50.924;13.338;2022-07-22T01:41:06;17.50;99.90
10354;DHT22;5223;50.924;13.338;2022-07-22T01:43:33;17.40;99.90
10354;DHT22;5223;50.924;13.338;2022-07-22T01:46:03;17.40;99.90
10354;DHT22;5223;50.924;13.338;2022-07-22T01:48:30;17.70;99.90
10354;DHT22;5223;50.924;13.338;2022-07-22T01:50:57;17.70;99.90
10354;DHT22;5223;50.924;13.338;2022-07-22T01:53:24;17.90;99.90
10354;DHT22;5223;50.924;13.338;2022-07-22T01:55:52;18.00;99.90
10354;DHT22;5223;50.924;13.338;2022-07-22T01:58:19;18.00;99.90
10354;DHT22;5223;50.924;13.338;2022-07-22T02:00:46;18.00;99.90
10354;DHT22;5223;50.924;13.338;2022-07-22T02:03:13;18.00;99.90
10354;DHT22;5223;50.924;13.338;2022-07-22T02:05:42;18.00;99.90
10354;DHT22;5223;50.924;13.338;2022-07-22T02:08:10;18.00;99.90
10354;DHT22;5223;50.924;13.338;2022-07-22T02:10:39;18.00;99.90
10354;DHT22;5223;50.924;13.338;2022-07-22T02:13:07;17.90;99.90
10354;DHT22;5223;50.924;13.338;2022-07-22T02:15:36;17.80;99.90
10354;DHT22;5223;50.924;13.338;2022-07-22T02:18:10;17.70;99.90
10354;DHT22;5223;50.924;13.338;2022-07-22T02:20:37;17.70;99.90
10354;DHT22;5223;50.924;13.338;2022-07-22T02:23:04;17.70;99.90
10354;DHT22;5223;50.924;13.338;2022-07-22T02:25:31;17.50;99.90
10354;DHT22;5223;50.924;13.338;2022-07-22T02:27:58;17.40;99.90
10354;DHT22;5223;50.924;13.338;2022-07-22T02:30:26;17.30;99.90
10354;DHT22;5223;50.924;13.338;2022-07-22T02:32:53;17.20;99.90
10354;DHT22;5223;50.924;13.338;2022-07-22T02:35:20;17.10;99.90
10354;DHT22;5223;50.924;13.338;2022-07-22T02:37:50;17.10;99.90
10354;DHT22;5223;50.924;13.338;2022-07-22T02:40:17;17.00;99.90
10354;DHT22;5223;50.924;13.338;2022-07-22T02:42:43;17.00;99.90
10354;DHT22;5223;50.924;13.338;2022-07-22T02:45:10;17.00;99.90
10354;DHT22;5223;50.924;13.338;2022-07-22T02:47:46;17.10;99.90
10354;DHT22;5223;50.924;13.338;2022-07-22T02:50:13;17.10;99.90
10354;DHT22;5223;50.924;13.338;2022-07-22T02:52:40;17.10;99.90
10354;DHT22;5223;50.924;13.338;2022-07-22T02:55:07;17.00;99.90
10354;DHT22;5223;50.924;13.338;2022-07-22T02:57:34;17.30;99.90
10354;DHT22;5223;50.924;13.338;2022-07-22T03:00:03;17.50;99.90
10354;DHT22;5223;50.924;13.338;2022-07-22T03:02:30;17.60;99.90
10354;DHT22;5223;50.924;13.338;2022-07-22T03:04:58;17.70;99.90
10354;DHT22;5223;50.924;13.338;2022-07-22T03:07:25;17.70;99.90
10354;DHT22;5223;50.924;13.338;2022-07-22T03:09:52;17.70;99.90
10354;DHT22;5223;50.924;13.338;2022-07-22T03:12:18;17.70;99.90
10354;DHT22;5223;50.924;13.338;2022-07-22T03:14:45;17.60;99.90
10354;DHT22;5223;50.924;13.338;2022-07-22T03:17:12;17.60;99.90
10354;DHT22;5223;50.924;13.338;2022-07-22T03:19:39;17.60;99.90
10354;DHT22;5223;50.924;13.338;2022-07-22T03:22:08;17.60;99.90
10354;DHT22;5223;50.924;13.338;2022-07-22T03:24:35;17.50;99.90
10354;DHT22;5223;50.924;13.338;2022-07-22T03:27:01;17.50;99.90
10354;DHT22;5223;50.924;13.338;2022-07-22T03:29:28;17.50;99.90
10354;DHT22;5223;50.924;13.338;2022-07-22T03:31:55;17.50;99.90
10354;DHT22;5223;50.924;13.338;2022-07-22T03:34:22;17.40;99.90
10354;DHT22;5223;50.924;13.338;2022-07-22T03:36:49;17.30;99.90
10354;DHT22;5223;50.924;13.338;2022-07-22T03:39:19;17.20;99.90
10354;DHT22;5223;50.924;13.338;2022-07-22T03:42:09;17.20;99.90
10354;DHT22;5223;50.924;13.338;2022-07-22T03:45:18;17.10;99.90
10354;DHT22;5223;50.924;13.338;2022-07-22T03:48:10;17.20;99.90
10354;DHT22;5223;50.924;13.338;2022-07-22T04:10:16;17.40;99.90
10354;DHT22;5223;50.924;13.338;2022-07-22T04:13:04;17.40;99.90
10354;DHT22;5223;50.924;13.338;2022-07-22T04:16:06;17.50;99.90
10354;DHT22;5223;50.924;13.338;2022-07-22T04:31:37;17.80;99.90
10354;DHT22;5223;50.924;13.338;2022-07-22T04:34:23;18.00;99.90
10354;DHT22;5223;50.924;13.338;2022-07-22T04:40:18;18.00;99.90
10354;DHT22;5223;50.924;13.338;2022-07-22T04:43:21;18.00;99.90
10354;DHT22;5223;50.924;13.338;2022-07-22T04:46:05;18.20;99.90
10354;DHT22;5223;50.924;13.338;2022-07-22T05:02:33;18.70;99.90
10354;DHT22;5223;50.924;13.338;2022-07-22T05:05:18;18.80;99.90
10354;DHT22;5223;50.924;13.338;2022-07-22T05:08:00;18.80;99.90
10354;DHT22;5223;50.924;13.338;2022-07-22T05:10:45;18.90;99.90
10354;DHT22;5223;50.924;13.338;2022-07-22T05:14:04;19.10;99.90
10354;DHT22;5223;50.924;13.338;2022-07-22T05:17:01;19.20;99.90
10354;DHT22;5223;50.924;13.338;2022-07-22T06:12:33;19.90;99.90
10354;DHT22;5223;50.924;13.338;2022-07-22T06:42:33;23.60;99.90
10354;DHT22;5223;50.924;13.338;2022-07-22T06:45:04;23.60;99.90
10354;DHT22;5223;50.924;13.338;2022-07-22T06:47:31;24.50;99.30
10354;DHT22;5223;50.924;13.338;2022-07-22T06:50:01;23.60;99.70
10354;DHT22;5223;50.924;13.338;2022-07-22T06:52:30;23.30;99.90
10354;DHT22;5223;50.924;13.338;2022-07-22T06:55:00;22.60;99.90
10354;DHT22;5223;50.924;13.338;2022-07-22T06:57:27;23.70;99.90
10354;DHT22;5223;50.924;13.338;2022-07-22T07:00:00;24.40;98.70
10354;DHT22;5223;50.924;13.338;2022-07-22T07:02:27;25.20;97.10
10354;DHT22;5223;50.924;13.338;2022-07-22T07:04:54;23.90;98.30
10354;DHT22;5223;50.924;13.338;2022-07-22T07:07:21;23.70;98.60
10354;DHT22;5223;50.924;13.338;2022-07-22T07:09:49;23.30;98.30
10354;DHT22;5223;50.924;13.338;2022-07-22T07:12:17;23.10;99.10
10354;DHT22;5223;50.924;13.338;2022-07-22T07:14:50;23.70;97.90
10354;DHT22;5223;50.924;13.338;2022-07-22T07:17:20;23.70;97.80
10354;DHT22;5223;50.924;13.338;2022-07-22T07:19:47;23.90;97.60
10354;DHT22;5223;50.924;13.338;2022-07-22T07:22:14;23.60;97.20
10354;DHT22;5223;50.924;13.338;2022-07-22T07:24:41;24.00;96.90
10354;DHT22;5223;50.924;13.338;2022-07-22T07:27:13;24.40;96.70
10354;DHT22;5223;50.924;13.338;2022-07-22T07:29:41;24.30;96.90
10354;DHT22;5223;50.924;13.338;2022-07-22T07:32:12;24.30;95.80
10354;DHT22;5223;50.924;13.338;2022-07-22T07:34:41;25.00;94.80
10354;DHT22;5223;50.924;13.338;2022-07-22T07:37:09;24.80;96.00
10354;DHT22;5223;50.924;13.338;2022-07-22T07:39:36;24.70;95.30
10354;DHT22;5223;50.924;13.338;2022-07-22T07:42:04;24.60;96.60
10354;DHT22;5223;50.924;13.338;2022-07-22T07:44:31;24.70;95.40
10354;DHT22;5223;50.924;13.338;2022-07-22T07:46:58;25.80;94.60
10354;DHT22;5223;50.924;13.338;2022-07-22T07:49:26;27.70;92.10
10354;DHT22;5223;50.924;13.338;2022-07-22T07:51:59;28.30;88.70
10354;DHT22;5223;50.924;13.338;2022-07-22T07:54:26;27.80;89.10
10354;DHT22;5223;50.924;13.338;2022-07-22T07:56:54;27.50;90.10
10354;DHT22;5223;50.924;13.338;2022-07-22T07:59:23;28.90;87.30
10354;DHT22;5223;50.924;13.338;2022-07-22T08:01:50;30.70;81.10
10354;DHT22;5223;50.924;13.338;2022-07-22T08:04:17;29.20;80.10
10354;DHT22;5223;50.924;13.338;2022-07-22T08:06:44;27.00;86.10
10354;DHT22;5223;50.924;13.338;2022-07-22T08:09:12;27.70;86.60
10354;DHT22;5223;50.924;13.338;2022-07-22T08:11:39;28.80;81.80
10354;DHT22;5223;50.924;13.338;2022-07-22T08:14:07;30.00;78.90
10354;DHT22;5223;50.924;13.338;2022-07-22T08:16:35;29.40;78.60
10354;DHT22;5223;50.924;13.338;2022-07-22T08:19:02;27.80;84.20
10354;DHT22;5223;50.924;13.338;2022-07-22T08:21:29;26.40;86.20
10354;DHT22;5223;50.924;13.338;2022-07-22T08:23:58;26.00;88.90
10354;DHT22;5223;50.924;13.338;2022-07-22T08:26:31;26.30;88.20
10354;DHT22;5223;50.924;13.338;2022-07-22T08:28:58;27.20;85.20
10354;DHT22;5223;50.924;13.338;2022-07-22T08:31:33;28.10;85.70
10354;DHT22;5223;50.924;13.338;2022-07-22T08:34:00;28.90;80.40
10354;DHT22;5223;50.924;13.338;2022-07-22T08:36:28;28.80;80.50
10354;DHT22;5223;50.924;13.338;2022-07-22T08:38:56;29.10;79.30
10354;DHT22;5223;50.924;13.338;2022-07-22T08:41:24;28.40;79.00
10354;DHT22;5223;50.924;13.338;2022-07-22T08:43:53;28.10;82.90
10354;DHT22;5223;50.924;13.338;2022-07-22T08:46:22;29.00;80.60
10354;DHT22;5223;50.924;13.338;2022-07-22T08:48:50;28.80;78.90
10354;DHT22;5223;50.924;13.338;2022-07-22T08:51:20;29.20;75.90
10354;DHT22;5223;50.924;13.338;2022-07-22T08:53:48;29.10;77.10
10354;DHT22;5223;50.924;13.338;2022-07-22T08:56:16;29.30;75.30
10354;DHT22;5223;50.924;13.338;2022-07-22T08:58:43;28.10;77.60
10354;DHT22;5223;50.924;13.338;2022-07-22T09:01:16;28.60;79.00
10354;DHT22;5223;50.924;13.338;2022-07-22T09:03:46;28.80;76.00
10354;DHT22;5223;50.924;13.338;2022-07-22T09:06:13;29.10;77.20
10354;DHT22;5223;50.924;13.338;2022-07-22T09:08:53;27.90;78.30
10354;DHT22;5223;50.924;13.338;2022-07-22T09:11:22;28.00;79.50
10354;DHT22;5223;50.924;13.338;2022-07-22T09:13:51;28.00;79.00
10354;DHT22;5223;50.924;13.338;2022-07-22T09:16:38;27.80;78.00
10354;DHT22;5223;50.924;13.338;2022-07-22T09:19:06;28.40;76.00
10354;DHT22;5223;50.924;13.338;2022-07-22T09:21:35;29.20;76.30
10354;DHT22;5223;50.924;13.338;2022-07-22T09:24:04;30.50;70.20
10354;DHT22;5223;50.924;13.338;2022-07-22T09:26:36;31.10;69.10
10354;DHT22;5223;50.924;13.338;2022-07-22T09:29:04;31.00;68.80
10354;DHT22;5223;50.924;13.338;2022-07-22T10:00:06;29.50;70.60
10354;DHT22;5223;50.924;13.338;2022-07-22T10:02:42;31.60;67.90
10354;DHT22;5223;50.924;13.338;2022-07-22T10:05:11;31.00;65.40
10354;DHT22;5223;50.924;13.338;2022-07-22T10:07:41;31.60;62.80
10354;DHT22;5223;50.924;13.338;2022-07-22T10:10:10;33.00;60.00
10354;DHT22;5223;50.924;13.338;2022-07-22T10:12:37;34.70;56.80
10354;DHT22;5223;50.924;13.338;2022-07-22T10:15:08;33.50;55.60
10354;DHT22;5223;50.924;13.338;2022-07-22T10:17:36;33.10;57.40
10354;DHT22;5223;50.924;13.338;2022-07-22T10:20:05;33.70;57.80
10354;DHT22;5223;50.924;13.338;2022-07-22T10:22:53;33.90;55.20
10354;DHT22;5223;50.924;13.338;2022-07-22T10:25:22;31.50;60.40
10354;DHT22;5223;50.924;13.338;2022-07-22T10:27:53;31.10;59.70
10354;DHT22;5223;50.924;13.338;2022-07-22T10:30:24;31.60;57.10
10354;DHT22;5223;50.924;13.338;2022-07-22T10:33:08;31.60;59.10
10354;DHT22;5223;50.924;13.338;2022-07-22T10:35:50;33.70;56.10
10354;DHT22;5223;50.924;13.338;2022-07-22T10:38:18;32.60;57.30
10354;DHT22;5223;50.924;13.338;2022-07-22T10:41:00;32.20;56.80
10354;DHT22;5223;50.924;13.338;2022-07-22T10:43:30;32.10;55.60
10354;DHT22;5223;50.924;13.338;2022-07-22T10:45:59;32.10;56.40
10354;DHT22;5223;50.924;13.338;2022-07-22T10:48:45;32.10;57.50
10354;DHT22;5223;50.924;13.338;2022-07-22T10:51:15;34.10;54.70
10354;DHT22;5223;50.924;13.338;2022-07-22T10:53:45;34.60;51.10
10354;DHT22;5223;50.924;13.338;2022-07-22T10:56:16;32.10;55.20
10354;DHT22;5223;50.924;13.338;2022-07-22T10:58:49;29.90;60.80
10354;DHT22;5223;50.924;13.338;2022-07-22T11:01:20;31.90;58.00
10354;DHT22;5223;50.924;13.338;2022-07-22T11:03:48;33.70;54.60
10354;DHT22;5223;50.924;13.338;2022-07-22T11:06:21;32.00;54.10
10354;DHT22;5223;50.924;13.338;2022-07-22T11:08:50;30.80;58.00
10354;DHT22;5223;50.924;13.338;2022-07-22T11:11:19;30.80;59.00
10354;DHT22;5223;50.924;13.338;2022-07-22T11:13:57;31.10;57.20
10354;DHT22;5223;50.924;13.338;2022-07-22T11:16:26;29.10;60.00
10354;DHT22;5223;50.924;13.338;2022-07-22T11:18:55;29.30;63.50
10354;DHT22;5223;50.924;13.338;2022-07-22T11:21:24;31.20;62.50
10354;DHT22;5223;50.924;13.338;2022-07-22T11:23:54;33.70;57.30
10354;DHT22;5223;50.924;13.338;2022-07-22T11:26:25;33.40;55.60
10354;DHT22;5223;50.924;13.338;2022-07-22T11:28:52;31.80;57.30
10354;DHT22;5223;50.924;13.338;2022-07-22T11:31:19;33.40;55.20
10354;DHT22;5223;50.924;13.338;2022-07-22T11:33:47;34.50;51.60
10354;DHT22;5223;50.924;13.338;2022-07-22T11:36:16;34.50;51.20
10354;DHT22;5223;50.924;13.338;2022-07-22T11:38:46;34.20;51.50
10354;DHT22;5223;50.924;13.338;2022-07-22T11:41:14;34.90;51.50
10354;DHT22;5223;50.924;13.338;2022-07-22T11:43:42;35.90;49.40
10354;DHT22;5223;50.924;13.338;2022-07-22T11:46:10;35.70;47.80
10354;DHT22;5223;50.924;13.338;2022-07-22T11:48:38;35.40;48.90
10354;DHT22;5223;50.924;13.338;2022-07-22T11:51:06;33.50;53.90
10354;DHT22;5223;50.924;13.338;2022-07-22T11:53:36;35.20;50.80
10354;DHT22;5223;50.924;13.338;2022-07-22T11:56:04;35.50;48.90
10354;DHT22;5223;50.924;13.338;2022-07-22T11:58:45;35.40;48.80
10354;DHT22;5223;50.924;13.338;2022-07-22T12:01:14;36.70;48.30
10354;DHT22;5223;50.924;13.338;2022-07-22T12:03:45;36.80;47.30
10354;DHT22;5223;50.924;13.338;2022-07-22T12:06:17;36.40;48.60
10354;DHT22;5223;50.924;13.338;2022-07-22T12:08:46;36.50;48.50
10354;DHT22;5223;50.924;13.338;2022-07-22T12:11:17;36.70;47.30
10354;DHT22;5223;50.924;13.338;2022-07-22T12:13:46;35.40;48.20
10354;DHT22;5223;50.924;13.338;2022-07-22T12:16:18;33.30;50.80
10354;DHT22;5223;50.924;13.338;2022-07-22T12:18:54;33.10;53.90
10354;DHT22;5223;50.924;13.338;2022-07-22T12:21:23;33.70;52.10
10354;DHT22;5223;50.924;13.338;2022-07-22T12:23:55;34.80;49.40
10354;DHT22;5223;50.924;13.338;2022-07-22T12:26:41;36.00;47.90
10354;DHT22;5223;50.924;13.338;2022-07-22T12:29:18;35.60;47.20
10354;DHT22;5223;50.924;13.338;2022-07-22T12:31:45;34.10;47.90
10354;DHT22;5223;50.924;13.338;2022-07-22T12:34:13;34.20;51.60
10354;DHT22;5223;50.924;13.338;2022-07-22T12:36:47;35.80;48.20
10354;DHT22;5223;50.924;13.338;2022-07-22T12:39:18;36.50;45.70
10354;DHT22;5223;50.924;13.338;2022-07-22T12:41:48;36.50;45.30
10354;DHT22;5223;50.924;13.338;2022-07-22T12:44:16;35.10;48.10
10354;DHT22;5223;50.924;13.338;2022-07-22T12:46:45;36.40;46.10
10354;DHT22;5223;50.924;13.338;2022-07-22T12:49:16;35.10;47.60
10354;DHT22;5223;50.924;13.338;2022-07-22T12:52:08;34.90;47.30
10354;DHT22;5223;50.924;13.338;2022-07-22T12:54:37;35.40;46.80
10354;DHT22;5223;50.924;13.338;2022-07-22T12:57:05;36.30;47.70
10354;DHT22;5223;50.924;13.338;2022-07-22T12:59:35;37.10;44.20
10354;DHT22;5223;50.924;13.338;2022-07-22T13:02:03;37.20;44.80
10354;DHT22;5223;50.924;13.338;2022-07-22T13:04:32;36.00;44.60
10354;DHT22;5223;50.924;13.338;2022-07-22T13:06:59;34.80;48.60
10354;DHT22;5223;50.924;13.338;2022-07-22T13:09:27;34.40;48.50
10354;DHT22;5223;50.924;13.338;2022-07-22T13:11:55;34.60;48.20
10354;DHT22;5223;50.924;13.338;2022-07-22T13:14:22;33.30;49.20
10354;DHT22;5223;50.924;13.338;2022-07-22T13:16:48;34.00;50.40
10354;DHT22;5223;50.924;13.338;2022-07-22T13:19:15;34.90;48.00
10354;DHT22;5223;50.924;13.338;2022-07-22T13:21:42;34.50;48.20
10354;DHT22;5223;50.924;13.338;2022-07-22T13:24:10;34.50;47.80
10354;DHT22;5223;50.924;13.338;2022-07-22T13:26:39;33.70;48.80
10354;DHT22;5223;50.924;13.338;2022-07-22T13:29:06;34.10;49.00
10354;DHT22;5223;50.924;13.338;2022-07-22T13:31:33;34.20;47.50
10354;DHT22;5223;50.924;13.338;2022-07-22T13:34:00;33.20;49.20
10354;DHT22;5223;50.924;13.338;2022-07-22T13:36:27;34.50;48.90
10354;DHT22;5223;50.924;13.338;2022-07-22T13:38:58;35.60;47.60
10354;DHT22;5223;50.924;13.338;2022-07-22T13:41:25;35.90;45.80
10354;DHT22;5223;50.924;13.338;2022-07-22T13:43:53;33.70;47.60
10354;DHT22;5223;50.924;13.338;2022-07-22T13:46:20;33.20;49.40
10354;DHT22;5223;50.924;13.338;2022-07-22T13:48:48;34.40;48.40
10354;DHT22;5223;50.924;13.338;2022-07-22T13:51:15;35.30;46.70
10354;DHT22;5223;50.924;13.338;2022-07-22T13:53:45;35.40;46.60
10354;DHT22;5223;50.924;13.338;2022-07-22T13:56:12;35.20;46.20
10354;DHT22;5223;50.924;13.338;2022-07-22T13:58:39;33.70;47.40
10354;DHT22;5223;50.924;13.338;2022-07-22T14:01:08;35.00;46.80
10354;DHT22;5223;50.924;13.338;2022-07-22T14:03:36;35.50;44.80
10354;DHT22;5223;50.924;13.338;2022-07-22T14:06:04;34.50;45.80
10354;DHT22;5223;50.924;13.338;2022-07-22T14:08:31;34.00;48.70
10354;DHT22;5223;50.924;13.338;2022-07-22T14:10:58;34.10;47.00
10354;DHT22;5223;50.924;13.338;2022-07-22T14:13:27;33.50;49.10
10354;DHT22;5223;50.924;13.338;2022-07-22T14:15:54;32.90;48.20
10354;DHT22;5223;50.924;13.338;2022-07-22T14:18:22;34.20;47.90
10354;DHT22;5223;50.924;13.338;2022-07-22T14:20:49;35.40;45.80
10354;DHT22;5223;50.924;13.338;2022-07-22T14:23:16;35.50;45.30
10354;DHT22;5223;50.924;13.338;2022-07-22T14:25:48;35.60;43.50
10354;DHT22;5223;50.924;13.338;2022-07-22T14:28:16;35.00;44.90
10354;DHT22;5223;50.924;13.338;2022-07-22T14:30:43;35.00;46.90
10354;DHT22;5223;50.924;13.338;2022-07-22T14:33:09;33.90;48.40
10354;DHT22;5223;50.924;13.338;2022-07-22T14:35:38;34.20;47.60
10354;DHT22;5223;50.924;13.338;2022-07-22T14:38:05;34.60;46.40
10354;DHT22;5223;50.924;13.338;2022-07-22T14:40:33;35.00;46.90
10354;DHT22;5223;50.924;13.338;2022-07-22T14:43:00;33.80;46.30
10354;DHT22;5223;50.924;13.338;2022-07-22T14:45:27;34.20;46.20
10354;DHT22;5223;50.924;13.338;2022-07-22T14:47:54;34.20;46.30
10354;DHT22;5223;50.924;13.338;2022-07-22T14:50:23;34.70;47.30
10354;DHT22;5223;50.924;13.338;2022-07-22T14:52:51;34.70;46.10
10354;DHT22;5223;50.924;13.338;2022-07-22T14:55:18;35.20;46.00
10354;DHT22;5223;50.924;13.338;2022-07-22T14:57:45;35.50;44.40
10354;DHT22;5223;50.924;13.338;2022-07-22T15:00:13;35.20;46.00
10354;DHT22;5223;50.924;13.338;2022-07-22T15:02:40;35.30;44.80
10354;DHT22;5223;50.924;13.338;2022-07-22T15:05:08;34.50;45.50
10354;DHT22;5223;50.924;13.338;2022-07-22T15:07:35;33.40;46.80
10354;DHT22;5223;50.924;13.338;2022-07-22T15:10:04;33.10;49.60
10354;DHT22;5223;50.924;13.338;2022-07-22T15:12:31;33.80;46.90
10354;DHT22;5223;50.924;13.338;2022-07-22T15:14:58;33.80;46.20
10354;DHT22;5223;50.924;13.338;2022-07-22T15:17:25;33.50;46.60
10354;DHT22;5223;50.924;13.338;2022-07-22T15:19:54;33.60;47.30
10354;DHT22;5223;50.924;13.338;2022-07-22T15:22:21;32.80;48.40
10354;DHT22;5223;50.924;13.338;2022-07-22T15:24:50;32.60;47.10
10354;DHT22;5223;50.924;13.338;2022-07-22T15:27:18;32.40;48.10
10354;DHT22;5223;50.924;13.338;2022-07-22T15:29:45;32.20;49.30
10354;DHT22;5223;50.924;13.338;2022-07-22T15:32:13;32.00;49.50
10354;DHT22;5223;50.924;13.338;2022-07-22T15:34:40;32.00;49.20
10354;DHT22;5223;50.924;13.338;2022-07-22T15:37:07;31.90;49.00
10354;DHT22;5223;50.924;13.338;2022-07-22T15:39:34;31.50;50.40
10354;DHT22;5223;50.924;13.338;2022-07-22T15:42:01;31.10;50.70
10354;DHT22;5223;50.924;13.338;2022-07-22T15:44:29;31.10;51.10
10354;DHT22;5223;50.924;13.338;2022-07-22T15:46:56;30.80;51.30
10354;DHT22;5223;50.924;13.338;2022-07-22T15:49:24;30.30;52.30
10354;DHT22;5223;50.924;13.338;2022-07-22T15:51:51;29.90;52.00
10354;DHT22;5223;50.924;13.338;2022-07-22T15:54:18;30.20;52.30
10354;DHT22;5223;50.924;13.338;2022-07-22T15:56:44;30.10;51.70
10354;DHT22;5223;50.924;13.338;2022-07-22T15:59:11;30.10;53.70
10354;DHT22;5223;50.924;13.338;2022-07-22T16:01:57;29.90;53.10
10354;DHT22;5223;50.924;13.338;2022-07-22T16:04:24;29.90;52.80
10354;DHT22;5223;50.924;13.338;2022-07-22T16:06:51;29.70;53.30
10354;DHT22;5223;50.924;13.338;2022-07-22T16:09:17;29.60;53.40
10354;DHT22;5223;50.924;13.338;2022-07-22T16:11:44;29.40;53.60
10354;DHT22;5223;50.924;13.338;2022-07-22T16:14:11;29.20;53.60
10354;DHT22;5223;50.924;13.338;2022-07-22T16:16:38;29.20;53.90
10354;DHT22;5223;50.924;13.338;2022-07-22T16:19:06;29.10;54.30
10354;DHT22;5223;50.924;13.338;2022-07-22T16:21:33;28.90;54.10
10354;DHT22;5223;50.924;13.338;2022-07-22T16:24:00;28.70;54.40
10354;DHT22;5223;50.924;13.338;2022-07-22T16:26:27;29.00;54.60
10354;DHT22;5223;50.924;13.338;2022-07-22T16:28:54;29.00;55.60
10354;DHT22;5223;50.924;13.338;2022-07-22T16:31:21;29.00;54.60
10354;DHT22;5223;50.924;13.338;2022-07-22T16:33:50;28.90;54.40
10354;DHT22;5223;50.924;13.338;2022-07-22T16:36:18;28.70;54.40
10354;DHT22;5223;50.924;13.338;2022-07-22T16:38:45;28.60;54.80
10354;DHT22;5223;50.924;13.338;2022-07-22T16:41:12;28.60;56.00
10354;DHT22;5223;50.924;13.338;2022-07-22T16:43:39;28.60;56.30
10354;DHT22;5223;50.924;13.338;2022-07-22T16:46:07;28.40;56.50
10354;DHT22;5223;50.924;13.338;2022-07-22T16:48:34;28.30;56.50
10354;DHT22;5223;50.924;13.338;2022-07-22T16:51:01;28.30;56.70
10354;DHT22;5223;50.924;13.338;2022-07-22T16:53:29;28.30;56.70
10354;DHT22;5223;50.924;13.338;2022-07-22T16:55:56;28.20;57.90
10354;DHT22;5223;50.924;13.338;2022-07-22T16:58:23;28.00;57.70
10354;DHT22;5223;50.924;13.338;2022-07-22T17:00:50;27.90;58.40
10354;DHT22;5223;50.924;13.338;2022-07-22T17:03:16;27.70;58.20
10354;DHT22;5223;50.924;13.338;2022-07-22T17:05:43;27.60;59.10
10354;DHT22;5223;50.924;13.338;2022-07-22T17:08:10;27.40;58.80
10354;DHT22;5223;50.924;13.338;2022-07-22T17:10:38;27.40;59.10
10354;DHT22;5223;50.924;13.338;2022-07-22T17:13:05;27.40;59.00
10354;DHT22;5223;50.924;13.338;2022-07-22T17:15:32;27.50;59.20
10354;DHT22;5223;50.924;13.338;2022-07-22T17:17:59;27.50;59.50
10354;DHT22;5223;50.924;13.338;2022-07-22T17:20:28;27.40;59.20
10354;DHT22;5223;50.924;13.338;2022-07-22T17:22:55;27.40;59.30
10354;DHT22;5223;50.924;13.338;2022-07-22T17:25:24;27.30;59.10
10354;DHT22;5223;50.924;13.338;2022-07-22T17:27:53;27.20;58.80
10354;DHT22;5223;50.924;13.338;2022-07-22T17:30:20;27.20;59.60
10354;DHT22;5223;50.924;13.338;2022-07-22T17:32:48;27.00;60.50
10354;DHT22;5223;50.924;13.338;2022-07-22T17:35:17;27.00;61.30
10354;DHT22;5223;50.924;13.338;2022-07-22T17:37:45;26.80;61.20
10354;DHT22;5223;50.924;13.338;2022-07-22T17:40:12;26.80;61.30
10354;DHT22;5223;50.924;13.338;2022-07-22T17:42:39;26.70;61.20
10354;DHT22;5223;50.924;13.338;2022-07-22T17:45:09;26.70;61.90
10354;DHT22;5223;50.924;13.338;2022-07-22T17:47:36;26.60;62.20
10354;DHT22;5223;50.924;13.338;2022-07-22T17:50:04;26.60;63.00
10354;DHT22;5223;50.924;13.338;2022-07-22T17:52:31;26.40;62.30
10354;DHT22;5223;50.924;13.338;2022-07-22T17:54:58;26.40;63.10
10354;DHT22;5223;50.924;13.338;2022-07-22T17:57:25;26.30;63.00
10354;DHT22;5223;50.924;13.338;2022-07-22T17:59:52;26.20;63.80
10354;DHT22;5223;50.924;13.338;2022-07-22T18:02:20;26.10;65.00
10354;DHT22;5223;50.924;13.338;2022-07-22T18:04:47;26.00;65.40
10354;DHT22;5223;50.924;13.338;2022-07-22T18:07:14;25.90;65.30
10354;DHT22;5223;50.924;13.338;2022-07-22T18:09:41;25.90;65.60
10354;DHT22;5223;50.924;13.338;2022-07-22T18:12:08;25.80;66.20
10354;DHT22;5223;50.924;13.338;2022-07-22T18:14:35;25.60;67.50
10354;DHT22;5223;50.924;13.338;2022-07-22T18:17:04;25.50;67.50
10354;DHT22;5223;50.924;13.338;2022-07-22T18:19:34;25.50;67.30
10354;DHT22;5223;50.924;13.338;2022-07-22T18:22:01;25.40;67.40